sensor_id;sensor_type;location;lat;lon;timestamp;pressure;altitude;pressure_sealevel;temperature;humidity
10348;BME280;5220;43.192;23.284;2023-05-21T00:02:18;96951.88;;;15.07;100.00
10348;BME280;5220;43.192;23.284;2023-05-21T00:04:46;96951.28;;;15.32;100.00
10348;BME280;5220;43.192;23.284;2023-05-21T00:07:12;96952.38;;;15.39;100.00
10348;BME280;5220;43.192;23.284;2023-05-21T00:09:40;96958.47;;;15.40;100.00
10348;BME280;5220;43.192;23.284;2023-05-21T00:12:08;96959.69;;;15.36;100.00
10348;BME280;5220;43.192;23.284;2023-05-21T00:14:36;96960.13;;;15.41;100.00
10348;BME280;5220;43.192;23.284;2023-05-21T00:17:03;96953.22;;;15.30;100.00
10348;BME280;5220;43.192;23.284;2023-05-21T00:19:29;96949.38;;;15.25;100.00
10348;BME280;5220;43.192;23.284;2023-05-21T00:21:58;96948.19;;;15.00;100.00
10348;BME280;5220;43.192;23.284;2023-05-21T00:24:26;96948.56;;;15.05;100.00
10348;BME280;5220;43.192;23.284;2023-05-21T00:26:53;96948.19;;;14.81;100.00
10348;BME280;5220;43.192;23.284;2023-05-21T00:29:20;96949.81;;;15.11;100.00
10348;BME280;5220;43.192;23.284;2023-05-21T00:31:48;96941.53;;;15.25;100.00
10348;BME280;5220;43.192;23.284;2023-05-21T00:34:16;96942.75;;;15.21;100.00
10348;BME280;5220;43.192;23.284;2023-05-21T00:36:43;96942.22;;;15.17;100.00
10348;BME280;5220;43.192;23.284;2023-05-21T00:39:11;96930.63;;;15.20;100.00
10348;BME280;5220;43.192;23.284;2023-05-21T00:41:37;96927.72;;;15.13;100.00
10348;BME280;5220;43.192;23.284;2023-05-21T00:44:05;96925.44;;;15.00;100.00
10348;BME280;5220;43.192;23.284;2023-05-21T00:46:32;96932.16;;;15.13;100.00
10348;BME280;5220;43.192;23.284;2023-05-21T00:49:00;96928.00;;;15.20;100.00
10348;BME280;5220;43.192;23.284;2023-05-21T00:51:27;96921.97;;;15.00;100.00
10348;BME280;5220;43.192;23.284;2023-05-21T00:53:55;96921.81;;;15.11;100.00
10348;BME280;5220;43.192;23.284;2023-05-21T00:56:23;96923.59;;;15.20;100.00
10348;BME280;5220;43.192;23.284;2023-05-21T00:58:51;96920.97;;;15.11;100.00
10348;BME280;5220;43.192;23.284;2023-05-21T01:01:18;96912.44;;;15.08;100.00
10348;BME280;5220;43.192;23.284;2023-05-21T01:03:44;96915.19;;;15.17;100.00
10348;BME280;5220;43.192;23.284;2023-05-21T01:06:14;96918.06;;;15.23;100.00
10348;BME280;5220;43.192;23.284;2023-05-21T01:08:40;96922.75;;;15.29;100.00
10348;BME280;5220;43.192;23.284;2023-05-21T01:11:09;96909.66;;;15.20;100.00
10348;BME280;5220;43.192;23.284;2023-05-21T01:13:38;96907.47;;;15.25;100.00
10348;BME280;5220;43.192;23.284;2023-05-21T01:16:06;96909.09;;;15.26;100.00
10348;BME280;5220;43.192;23.284;2023-05-21T01:18:33;96912.97;;;15.22;100.00
10348;BME280;5220;43.192;23.284;2023-05-21T01:21:02;96914.03;;;15.29;100.00
10348;BME280;5220;43.192;23.284;2023-05-21T01:23:30;96911.88;;;15.24;100.00
10348;BME280;5220;43.192;23.284;2023-05-21T01:25:57;96916.56;;;15.21;100.00
10348;BME280;5220;43.192;23.284;2023-05-21T01:28:24;96910.09;;;15.15;100.00
10348;BME280;5220;43.192;23.284;2023-05-21T01:30:50;96916.00;;;15.17;100.00
10348;BME280;5220;43.192;23.284;2023-05-21T01:33:22;96908.31;;;15.16;100.00
10348;BME280;5220;43.192;23.284;2023-05-21T01:35:58;96916.84;;;15.18;100.00
10348;BME280;5220;43.192;23.284;2023-05-21T01:38:34;96913.56;;;15.06;100.00
10348;BME280;5220;43.192;23.284;2023-05-21T01:41:06;96907.50;;;15.05;100.00
10348;BME280;5220;43.192;23.284;2023-05-21T01:43:38;96911.22;;;14.93;100.00
10348;BME280;5220;43.192;23.284;2023-05-21T01:46:07;96910.41;;;14.93;100.00
10348;BME280;5220;43.192;23.284;2023-05-21T01:48:35;96912.06;;;14.94;100.00
10348;BME280;5220;43.192;23.284;2023-05-21T01:51:03;96912.19;;;14.92;100.00
10348;BME280;5220;43.192;23.284;2023-05-21T01:53:32;96918.94;;;14.95;100.00
10348;BME280;5220;43.192;23.284;2023-05-21T01:55:58;96913.59;;;14.87;100.00
10348;BME280;5220;43.192;23.284;2023-05-21T01:58:25;96926.81;;;14.85;100.00
10348;BME280;5220;43.192;23.284;2023-05-21T02:00:51;96920.47;;;14.88;100.00
10348;BME280;5220;43.192;23.284;2023-05-21T02:03:19;96914.97;;;14.91;100.00
10348;BME280;5220;43.192;23.284;2023-05-21T02:05:47;96922.13;;;14.89;100.00
10348;BME280;5220;43.192;23.284;2023-05-21T02:08:16;96918.94;;;14.85;100.00
10348;BME280;5220;43.192;23.284;2023-05-21T02:10:45;96918.69;;;14.79;100.00
10348;BME280;5220;43.192;23.284;2023-05-21T02:13:11;96913.31;;;14.80;100.00
10348;BME280;5220;43.192;23.284;2023-05-21T02:15:38;96910.00;;;14.78;100.00
10348;BME280;5220;43.192;23.284;2023-05-21T02:18:05;96914.69;;;14.65;100.00
10348;BME280;5220;43.192;23.284;2023-05-21T02:20:32;96913.66;;;14.28;100.00
10348;BME280;5220;43.192;23.284;2023-05-21T02:22:59;96901.47;;;14.38;100.00
10348;BME280;5220;43.192;23.284;2023-05-21T02:25:26;96906.41;;;14.41;100.00
10348;BME280;5220;43.192;23.284;2023-05-21T02:27:54;96901.59;;;14.56;100.00
10348;BME280;5220;43.192;23.284;2023-05-21T02:30:21;96908.06;;;14.42;100.00
10348;BME280;5220;43.192;23.284;2023-05-21T02:32:47;96898.81;;;14.57;100.00
10348;BME280;5220;43.192;23.284;2023-05-21T02:35:15;96902.44;;;14.56;100.00
10348;BME280;5220;43.192;23.284;2023-05-21T02:37:42;96911.94;;;14.38;100.00
10348;BME280;5220;43.192;23.284;2023-05-21T02:40:09;96905.03;;;14.46;100.00
10348;BME280;5220;43.192;23.284;2023-05-21T02:42:36;96906.84;;;14.56;100.00
10348;BME280;5220;43.192;23.284;2023-05-21T02:45:06;96896.47;;;14.54;100.00
10348;BME280;5220;43.192;23.284;2023-05-21T02:47:33;96900.63;;;14.47;100.00
10348;BME280;5220;43.192;23.284;2023-05-21T02:50:00;96898.16;;;14.45;100.00
10348;BME280;5220;43.192;23.284;2023-05-21T02:52:27;96903.66;;;14.52;100.00
10348;BME280;5220;43.192;23.284;2023-05-21T02:54:53;96901.88;;;14.52;100.00
10348;BME280;5220;43.192;23.284;2023-05-21T02:57:20;96911.13;;;14.57;100.00
10348;BME280;5220;43.192;23.284;2023-05-21T02:59:47;96908.63;;;14.55;100.00
10348;BME280;5220;43.192;23.284;2023-05-21T03:02:15;96906.97;;;14.54;100.00
10348;BME280;5220;43.192;23.284;2023-05-21T03:04:42;96906.84;;;14.56;100.00
10348;BME280;5220;43.192;23.284;2023-05-21T03:07:11;96914.97;;;14.52;100.00
10348;BME280;5220;43.192;23.284;2023-05-21T03:09:38;96913.09;;;14.24;100.00
10348;BME280;5220;43.192;23.284;2023-05-21T03:12:05;96920.06;;;14.35;100.00
10348;BME280;5220;43.192;23.284;2023-05-21T03:14:32;96921.13;;;14.42;100.00
10348;BME280;5220;43.192;23.284;2023-05-21T03:16:59;96919.09;;;14.45;100.00
10348;BME280;5220;43.192;23.284;2023-05-21T03:19:29;96915.78;;;14.43;100.00
10348;BME280;5220;43.192;23.284;2023-05-21T03:21:58;96921.44;;;14.48;100.00
10348;BME280;5220;43.192;23.284;2023-05-21T03:24:25;96916.91;;;14.50;100.00
10348;BME280;5220;43.192;23.284;2023-05-21T03:26:53;96909.44;;;14.46;100.00
10348;BME280;5220;43.192;23.284;2023-05-21T03:29:20;96915.91;;;14.42;100.00
10348;BME280;5220;43.192;23.284;2023-05-21T03:31:46;96916.75;;;14.52;100.00
10348;BME280;5220;43.192;23.284;2023-05-21T03:34:13;96914.47;;;14.09;100.00
10348;BME280;5220;43.192;23.284;2023-05-21T03:36:42;96903.72;;;13.63;100.00
10348;BME280;5220;43.192;23.284;2023-05-21T03:39:09;96922.53;;;13.96;100.00
10348;BME280;5220;43.192;23.284;2023-05-21T03:41:36;96920.38;;;14.11;100.00
10348;BME280;5220;43.192;23.284;2023-05-21T03:44:03;96910.88;;;14.00;100.00
10348;BME280;5220;43.192;23.284;2023-05-21T03:46:31;96907.97;;;14.04;100.00
10348;BME280;5220;43.192;23.284;2023-05-21T03:48:58;96907.31;;;14.30;100.00
10348;BME280;5220;43.192;23.284;2023-05-21T03:51:25;96912.72;;;14.38;100.00
10348;BME280;5220;43.192;23.284;2023-05-21T03:53:56;96901.97;;;14.32;100.00
10348;BME280;5220;43.192;23.284;2023-05-21T03:56:23;96909.09;;;14.20;100.00
10348;BME280;5220;43.192;23.284;2023-05-21T03:58:50;96907.66;;;14.46;100.00
10348;BME280;5220;43.192;23.284;2023-05-21T04:01:18;96904.00;;;14.19;100.00
10348;BME280;5220;43.192;23.284;2023-05-21T04:03:45;96886.56;;;14.29;100.00
10348;BME280;5220;43.192;23.284;2023-05-21T04:06:12;96892.78;;;14.47;100.00
10348;BME280;5220;43.192;23.284;2023-05-21T04:08:38;96894.41;;;14.67;100.00
10348;BME280;5220;43.192;23.284;2023-05-21T04:11:06;96887.41;;;14.68;100.00
10348;BME280;5220;43.192;23.284;2023-05-21T04:13:33;96888.91;;;14.70;100.00
10348;BME280;5220;43.192;23.284;2023-05-21T04:16:00;96888.34;;;14.86;100.00
10348;BME280;5220;43.192;23.284;2023-05-21T04:18:27;96895.22;;;15.06;100.00
10348;BME280;5220;43.192;23.284;2023-05-21T04:20:53;96896.97;;;15.25;100.00
10348;BME280;5220;43.192;23.284;2023-05-21T04:23:20;96885.75;;;15.32;100.00
10348;BME280;5220;43.192;23.284;2023-05-21T04:25:47;96891.69;;;15.44;100.00
10348;BME280;5220;43.192;23.284;2023-05-21T04:28:16;96900.63;;;15.51;100.00
10348;BME280;5220;43.192;23.284;2023-05-21T04:30:44;96894.53;;;15.60;100.00
10348;BME280;5220;43.192;23.284;2023-05-21T04:33:11;96893.47;;;15.43;100.00
10348;BME280;5220;43.192;23.284;2023-05-21T04:35:42;96900.75;;;15.59;100.00
10348;BME280;5220;43.192;23.284;2023-05-21T04:38:09;96911.09;;;15.60;100.00
10348;BME280;5220;43.192;23.284;2023-05-21T04:40:36;96914.66;;;15.69;100.00
10348;BME280;5220;43.192;23.284;2023-05-21T04:43:05;96919.91;;;15.69;100.00
10348;BME280;5220;43.192;23.284;2023-05-21T04:45:33;96919.66;;;15.63;100.00
10348;BME280;5220;43.192;23.284;2023-05-21T04:48:00;96918.47;;;15.38;100.00
10348;BME280;5220;43.192;23.284;2023-05-21T04:50:27;96923.00;;;15.82;100.00
10348;BME280;5220;43.192;23.284;2023-05-21T04:52:55;96903.06;;;15.99;100.00
10348;BME280;5220;43.192;23.284;2023-05-21T04:55:23;96902.22;;;15.98;100.00
10348;BME280;5220;43.192;23.284;2023-05-21T04:57:50;96921.63;;;16.50;100.00
10348;BME280;5220;43.192;23.284;2023-05-21T05:00:18;96908.25;;;16.71;100.00
10348;BME280;5220;43.192;23.284;2023-05-21T05:02:46;96903.22;;;16.60;100.00
10348;BME280;5220;43.192;23.284;2023-05-21T05:05:13;96914.84;;;16.75;100.00
10348;BME280;5220;43.192;23.284;2023-05-21T05:07:39;96915.22;;;16.80;100.00
10348;BME280;5220;43.192;23.284;2023-05-21T05:10:07;96913.88;;;16.76;100.00
10348;BME280;5220;43.192;23.284;2023-05-21T05:12:33;96926.41;;;17.00;100.00
10348;BME280;5220;43.192;23.284;2023-05-21T05:15:00;96912.84;;;17.12;100.00
10348;BME280;5220;43.192;23.284;2023-05-21T05:17:27;96913.28;;;17.26;100.00
10348;BME280;5220;43.192;23.284;2023-05-21T05:19:55;96912.53;;;17.33;100.00
10348;BME280;5220;43.192;23.284;2023-05-21T05:22:22;96914.88;;;17.44;100.00
10348;BME280;5220;43.192;23.284;2023-05-21T05:24:48;96921.28;;;17.42;100.00
10348;BME280;5220;43.192;23.284;2023-05-21T05:27:15;96908.56;;;17.55;100.00
10348;BME280;5220;43.192;23.284;2023-05-21T05:29:42;96912.97;;;17.54;100.00
10348;BME280;5220;43.192;23.284;2023-05-21T05:32:09;96924.47;;;17.53;100.00
10348;BME280;5220;43.192;23.284;2023-05-21T05:34:36;96913.59;;;17.74;100.00
10348;BME280;5220;43.192;23.284;2023-05-21T05:37:05;96908.66;;;17.71;100.00
10348;BME280;5220;43.192;23.284;2023-05-21T05:39:31;96911.31;;;17.79;100.00
10348;BME280;5220;43.192;23.284;2023-05-21T05:41:58;96914.53;;;17.99;100.00
10348;BME280;5220;43.192;23.284;2023-05-21T05:44:25;96910.66;;;18.19;100.00
10348;BME280;5220;43.192;23.284;2023-05-21T05:46:52;96900.75;;;18.13;100.00
10348;BME280;5220;43.192;23.284;2023-05-21T05:49:19;96904.09;;;18.31;100.00
10348;BME280;5220;43.192;23.284;2023-05-21T05:51:45;96904.28;;;18.38;100.00
10348;BME280;5220;43.192;23.284;2023-05-21T05:54:13;96895.13;;;18.50;100.00
10348;BME280;5220;43.192;23.284;2023-05-21T05:56:40;96910.13;;;18.65;100.00
10348;BME280;5220;43.192;23.284;2023-05-21T05:59:07;96910.66;;;18.77;100.00
10348;BME280;5220;43.192;23.284;2023-05-21T06:01:33;96906.84;;;18.88;100.00
10348;BME280;5220;43.192;23.284;2023-05-21T06:04:00;96914.94;;;18.94;100.00
10348;BME280;5220;43.192;23.284;2023-05-21T06:06:27;96907.34;;;18.91;100.00
10348;BME280;5220;43.192;23.284;2023-05-21T06:08:53;96908.84;;;19.02;100.00
10348;BME280;5220;43.192;23.284;2023-05-21T06:11:21;96916.75;;;19.10;100.00
10348;BME280;5220;43.192;23.284;2023-05-21T06:13:48;96911.13;;;19.13;100.00
10348;BME280;5220;43.192;23.284;2023-05-21T06:16:15;96913.44;;;19.24;100.00
10348;BME280;5220;43.192;23.284;2023-05-21T06:18:41;96905.19;;;19.35;100.00
10348;BME280;5220;43.192;23.284;2023-05-21T06:21:08;96906.19;;;19.42;100.00
10348;BME280;5220;43.192;23.284;2023-05-21T06:23:35;96900.41;;;19.55;100.00
10348;BME280;5220;43.192;23.284;2023-05-21T06:26:02;96899.56;;;19.54;100.00
10348;BME280;5220;43.192;23.284;2023-05-21T06:28:30;96899.38;;;19.56;100.00
10348;BME280;5220;43.192;23.284;2023-05-21T06:30:57;96888.38;;;19.44;100.00
10348;BME280;5220;43.192;23.284;2023-05-21T06:33:23;96893.75;;;19.67;100.00
10348;BME280;5220;43.192;23.284;2023-05-21T06:35:51;96886.44;;;19.85;100.00
10348;BME280;5220;43.192;23.284;2023-05-21T06:38:18;96885.72;;;19.99;100.00
10348;BME280;5220;43.192;23.284;2023-05-21T06:40:44;96886.03;;;20.04;100.00
10348;BME280;5220;43.192;23.284;2023-05-21T06:43:12;96882.03;;;20.08;100.00
10348;BME280;5220;43.192;23.284;2023-05-21T06:45:40;96890.84;;;19.93;100.00
10348;BME280;5220;43.192;23.284;2023-05-21T06:48:07;96878.25;;;20.11;100.00
10348;BME280;5220;43.192;23.284;2023-05-21T06:50:33;96885.28;;;20.18;100.00
10348;BME280;5220;43.192;23.284;2023-05-21T06:53:00;96882.34;;;20.13;100.00
10348;BME280;5220;43.192;23.284;2023-05-21T06:55:27;96882.38;;;20.05;100.00
10348;BME280;5220;43.192;23.284;2023-05-21T06:57:53;96883.16;;;19.83;100.00
10348;BME280;5220;43.192;23.284;2023-05-21T07:00:20;96881.22;;;19.69;100.00
10348;BME280;5220;43.192;23.284;2023-05-21T07:02:48;96890.81;;;19.54;100.00
10348;BME280;5220;43.192;23.284;2023-05-21T07:05:15;96887.13;;;19.71;100.00
10348;BME280;5220;43.192;23.284;2023-05-21T07:07:42;96889.28;;;19.75;100.00
10348;BME280;5220;43.192;23.284;2023-05-21T07:10:09;96887.13;;;19.79;100.00
10348;BME280;5220;43.192;23.284;2023-05-21T07:12:35;96881.44;;;19.98;100.00
10348;BME280;5220;43.192;23.284;2023-05-21T07:15:02;96879.44;;;20.00;100.00
10348;BME280;5220;43.192;23.284;2023-05-21T07:17:29;96882.84;;;20.09;100.00
10348;BME280;5220;43.192;23.284;2023-05-21T07:19:57;96878.66;;;20.22;100.00
10348;BME280;5220;43.192;23.284;2023-05-21T07:22:24;96885.53;;;20.39;100.00
10348;BME280;5220;43.192;23.284;2023-05-21T07:24:51;96880.63;;;20.59;100.00
10348;BME280;5220;43.192;23.284;2023-05-21T07:27:17;96888.06;;;20.56;100.00
10348;BME280;5220;43.192;23.284;2023-05-21T07:29:44;96888.13;;;20.48;100.00
10348;BME280;5220;43.192;23.284;2023-05-21T07:32:11;96888.06;;;20.56;100.00
10348;BME280;5220;43.192;23.284;2023-05-21T07:34:37;96884.25;;;20.35;100.00
10348;BME280;5220;43.192;23.284;2023-05-21T07:37:05;96888.91;;;20.56;100.00
10348;BME280;5220;43.192;23.284;2023-05-21T07:39:32;96890.38;;;20.59;100.00
10348;BME280;5220;43.192;23.284;2023-05-21T07:41:59;96889.66;;;20.65;100.00
10348;BME280;5220;43.192;23.284;2023-05-21T07:44:25;96883.03;;;20.91;100.00
10348;BME280;5220;43.192;23.284;2023-05-21T07:46:52;96879.38;;;20.92;100.00
10348;BME280;5220;43.192;23.284;2023-05-21T07:49:19;96878.38;;;21.16;100.00
10348;BME280;5220;43.192;23.284;2023-05-21T07:51:45;96876.31;;;21.41;100.00
10348;BME280;5220;43.192;23.284;2023-05-21T07:54:13;96879.59;;;21.58;100.00
10348;BME280;5220;43.192;23.284;2023-05-21T07:56:40;96881.81;;;21.83;100.00
10348;BME280;5220;43.192;23.284;2023-05-21T07:59:07;96882.47;;;22.00;100.00
10348;BME280;5220;43.192;23.284;2023-05-21T08:01:33;96881.91;;;21.75;100.00
10348;BME280;5220;43.192;23.284;2023-05-21T08:04:01;96875.25;;;21.79;100.00
10348;BME280;5220;43.192;23.284;2023-05-21T08:06:30;96873.91;;;21.98;100.00
10348;BME280;5220;43.192;23.284;2023-05-21T08:08:58;96871.97;;;22.07;100.00
10348;BME280;5220;43.192;23.284;2023-05-21T08:11:27;96878.03;;;22.22;100.00
10348;BME280;5220;43.192;23.284;2023-05-21T08:13:54;96856.84;;;22.22;100.00
10348;BME280;5220;43.192;23.284;2023-05-21T08:16:21;96862.19;;;21.78;100.00
10348;BME280;5220;43.192;23.284;2023-05-21T08:18:48;96860.34;;;21.93;100.00
10348;BME280;5220;43.192;23.284;2023-05-21T08:21:15;96859.66;;;22.20;100.00
10348;BME280;5220;43.192;23.284;2023-05-21T08:23:42;96860.22;;;22.51;100.00
10348;BME280;5220;43.192;23.284;2023-05-21T08:26:09;96854.34;;;22.35;100.00
10348;BME280;5220;43.192;23.284;2023-05-21T08:28:38;96850.88;;;22.56;100.00
10348;BME280;5220;43.192;23.284;2023-05-21T08:31:04;96855.81;;;22.59;100.00
10348;BME280;5220;43.192;23.284;2023-05-21T08:33:34;96851.78;;;22.63;100.00
10348;BME280;5220;43.192;23.284;2023-05-21T08:36:01;96852.94;;;22.75;100.00
10348;BME280;5220;43.192;23.284;2023-05-21T08:38:28;96847.25;;;22.78;100.00
10348;BME280;5220;43.192;23.284;2023-05-21T08:40:55;96851.84;;;22.90;100.00
10348;BME280;5220;43.192;23.284;2023-05-21T08:43:24;96857.41;;;22.95;100.00
10348;BME280;5220;43.192;23.284;2023-05-21T08:45:55;96854.75;;;22.17;100.00
10348;BME280;5220;43.192;23.284;2023-05-21T08:48:23;96856.88;;;21.92;100.00
10348;BME280;5220;43.192;23.284;2023-05-21T08:50:50;96860.72;;;21.90;100.00
10348;BME280;5220;43.192;23.284;2023-05-21T08:53:17;96857.06;;;22.06;100.00
10348;BME280;5220;43.192;23.284;2023-05-21T08:55:45;96852.44;;;22.29;100.00
10348;BME280;5220;43.192;23.284;2023-05-21T08:58:12;96854.81;;;22.60;100.00
10348;BME280;5220;43.192;23.284;2023-05-21T09:00:39;96844.44;;;22.65;100.00
10348;BME280;5220;43.192;23.284;2023-05-21T09:03:07;96851.66;;;22.71;100.00
10348;BME280;5220;43.192;23.284;2023-05-21T09:05:38;96857.69;;;22.43;100.00
10348;BME280;5220;43.192;23.284;2023-05-21T09:08:09;96854.66;;;22.46;100.00
10348;BME280;5220;43.192;23.284;2023-05-21T09:10:45;96850.13;;;22.62;100.00
10348;BME280;5220;43.192;23.284;2023-05-21T09:13:14;96842.94;;;22.77;100.00
10348;BME280;5220;43.192;23.284;2023-05-21T09:15:42;96843.91;;;22.33;100.00
10348;BME280;5220;43.192;23.284;2023-05-21T09:18:11;96852.94;;;22.39;100.00
10348;BME280;5220;43.192;23.284;2023-05-21T09:20:38;96848.84;;;22.01;100.00
10348;BME280;5220;43.192;23.284;2023-05-21T09:23:05;96847.81;;;22.16;100.00
10348;BME280;5220;43.192;23.284;2023-05-21T09:25:37;96840.41;;;22.47;100.00
10348;BME280;5220;43.192;23.284;2023-05-21T09:28:10;96843.19;;;22.04;100.00
10348;BME280;5220;43.192;23.284;2023-05-21T09:30:42;96847.47;;;22.40;100.00
10348;BME280;5220;43.192;23.284;2023-05-21T09:33:11;96843.97;;;22.19;100.00
10348;BME280;5220;43.192;23.284;2023-05-21T09:35:43;96841.19;;;22.27;100.00
10348;BME280;5220;43.192;23.284;2023-05-21T09:38:11;96845.19;;;22.59;100.00
10348;BME280;5220;43.192;23.284;2023-05-21T09:40:42;96834.75;;;22.72;100.00
10348;BME280;5220;43.192;23.284;2023-05-21T09:43:12;96844.69;;;22.48;100.00
10348;BME280;5220;43.192;23.284;2023-05-21T09:45:49;96838.31;;;22.43;100.00
10348;BME280;5220;43.192;23.284;2023-05-21T09:48:31;96841.88;;;22.71;100.00
10348;BME280;5220;43.192;23.284;2023-05-21T09:51:09;96836.72;;;22.48;100.00
10348;BME280;5220;43.192;23.284;2023-05-21T09:53:42;96831.66;;;22.68;100.00
10348;BME280;5220;43.192;23.284;2023-05-21T09:56:09;96834.44;;;22.81;100.00
10348;BME280;5220;43.192;23.284;2023-05-21T09:58:37;96823.19;;;23.07;100.00
10348;BME280;5220;43.192;23.284;2023-05-21T10:01:04;96824.22;;;23.06;100.00
10348;BME280;5220;43.192;23.284;2023-05-21T10:03:37;96818.00;;;22.71;100.00
10348;BME280;5220;43.192;23.284;2023-05-21T10:06:06;96817.72;;;22.45;100.00
10348;BME280;5220;43.192;23.284;2023-05-21T10:08:35;96829.59;;;22.49;100.00
10348;BME280;5220;43.192;23.284;2023-05-21T10:11:04;96832.59;;;22.82;100.00
10348;BME280;5220;43.192;23.284;2023-05-21T10:13:33;96815.91;;;22.67;100.00
10348;BME280;5220;43.192;23.284;2023-05-21T10:16:04;96818.63;;;22.94;100.00
10348;BME280;5220;43.192;23.284;2023-05-21T10:18:32;96812.63;;;22.86;100.00
10348;BME280;5220;43.192;23.284;2023-05-21T10:21:00;96815.03;;;22.81;100.00
10348;BME280;5220;43.192;23.284;2023-05-21T10:23:28;96808.59;;;23.18;100.00
10348;BME280;5220;43.192;23.284;2023-05-21T10:25:56;96811.84;;;23.20;100.00
10348;BME280;5220;43.192;23.284;2023-05-21T10:28:24;96802.59;;;23.37;100.00
10348;BME280;5220;43.192;23.284;2023-05-21T10:30:51;96795.41;;;23.65;100.00
10348;BME280;5220;43.192;23.284;2023-05-21T10:33:19;96794.88;;;23.83;100.00
10348;BME280;5220;43.192;23.284;2023-05-21T10:35:50;96790.25;;;24.04;100.00
10348;BME280;5220;43.192;23.284;2023-05-21T10:38:18;96800.06;;;24.04;100.00
10348;BME280;5220;43.192;23.284;2023-05-21T10:40:46;96800.34;;;23.68;100.00
10348;BME280;5220;43.192;23.284;2023-05-21T10:46:42;96793.69;;;23.92;100.00
10348;BME280;5220;43.192;23.284;2023-05-21T10:49:37;96796.97;;;23.46;100.00
10348;BME280;5220;43.192;23.284;2023-05-21T10:55:10;96793.47;;;23.87;100.00
10348;BME280;5220;43.192;23.284;2023-05-21T10:58:09;96793.81;;;23.71;100.00
10348;BME280;5220;43.192;23.284;2023-05-21T11:00:40;96804.50;;;23.84;100.00
10348;BME280;5220;43.192;23.284;2023-05-21T11:03:09;96803.56;;;23.64;100.00
10348;BME280;5220;43.192;23.284;2023-05-21T11:05:37;96794.47;;;23.45;100.00
10348;BME280;5220;43.192;23.284;2023-05-21T11:08:17;96787.22;;;23.32;100.00
10348;BME280;5220;43.192;23.284;2023-05-21T11:10:51;96792.09;;;23.50;100.00
10348;BME280;5220;43.192;23.284;2023-05-21T11:13:18;96784.75;;;23.59;100.00
10348;BME280;5220;43.192;23.284;2023-05-21T11:16:05;96789.28;;;23.65;100.00
10348;BME280;5220;43.192;23.284;2023-05-21T11:18:59;96782.03;;;23.93;100.00
10348;BME280;5220;43.192;23.284;2023-05-21T11:21:29;96779.72;;;23.77;100.00
10348;BME280;5220;43.192;23.284;2023-05-21T11:24:05;96766.34;;;23.57;100.00
10348;BME280;5220;43.192;23.284;2023-05-21T11:26:58;96770.19;;;23.48;100.00
10348;BME280;5220;43.192;23.284;2023-05-21T11:29:33;96774.06;;;23.45;100.00
10348;BME280;5220;43.192;23.284;2023-05-21T11:32:06;96774.72;;;23.54;100.00
10348;BME280;5220;43.192;23.284;2023-05-21T11:34:36;96770.38;;;23.40;100.00
10348;BME280;5220;43.192;23.284;2023-05-21T11:37:23;96775.75;;;23.53;100.00
10348;BME280;5220;43.192;23.284;2023-05-21T11:39:53;96780.03;;;23.47;100.00
10348;BME280;5220;43.192;23.284;2023-05-21T11:42:29;96775.56;;;23.27;100.00
10348;BME280;5220;43.192;23.284;2023-05-21T11:44:56;96776.59;;;23.32;100.00
10348;BME280;5220;43.192;23.284;2023-05-21T11:47:24;96771.06;;;23.27;100.00
10348;BME280;5220;43.192;23.284;2023-05-21T11:49:51;96773.88;;;23.47;100.00
10348;BME280;5220;43.192;23.284;2023-05-21T11:52:18;96761.53;;;23.74;100.00
10348;BME280;5220;43.192;23.284;2023-05-21T11:54:46;96752.75;;;23.80;100.00
10348;BME280;5220;43.192;23.284;2023-05-21T11:57:16;96755.53;;;23.59;100.00
10348;BME280;5220;43.192;23.284;2023-05-21T11:59:44;96750.09;;;23.80;100.00
10348;BME280;5220;43.192;23.284;2023-05-21T12:02:14;96755.94;;;23.55;99.02
10348;BME280;5220;43.192;23.284;2023-05-21T12:04:42;96753.06;;;23.50;96.55
10348;BME280;5220;43.192;23.284;2023-05-21T12:07:09;96754.50;;;23.53;94.27
10348;BME280;5220;43.192;23.284;2023-05-21T12:09:38;96745.75;;;23.59;96.30
10348;BME280;5220;43.192;23.284;2023-05-21T12:12:07;96747.97;;;23.55;99.33
10348;BME280;5220;43.192;23.284;2023-05-21T12:14:36;96754.91;;;23.50;98.25
10348;BME280;5220;43.192;23.284;2023-05-21T12:17:03;96749.41;;;23.24;96.75
10348;BME280;5220;43.192;23.284;2023-05-21T12:19:32;96742.13;;;23.39;100.00
10348;BME280;5220;43.192;23.284;2023-05-21T12:22:00;96743.66;;;23.54;98.33
10348;BME280;5220;43.192;23.284;2023-05-21T12:24:28;96740.22;;;23.61;95.53
10348;BME280;5220;43.192;23.284;2023-05-21T12:26:55;96738.63;;;23.73;98.22
10348;BME280;5220;43.192;23.284;2023-05-21T12:29:24;96739.72;;;23.85;97.17
10348;BME280;5220;43.192;23.284;2023-05-21T12:31:52;96731.75;;;23.98;90.53
10348;BME280;5220;43.192;23.284;2023-05-21T12:34:47;96731.47;;;24.34;91.76
10348;BME280;5220;43.192;23.284;2023-05-21T12:37:15;96725.34;;;24.53;86.14
10348;BME280;5220;43.192;23.284;2023-05-21T12:39:42;96713.47;;;24.55;85.48
10348;BME280;5220;43.192;23.284;2023-05-21T12:42:11;96703.03;;;24.41;78.15
10348;BME280;5220;43.192;23.284;2023-05-21T12:44:42;96721.03;;;24.52;87.02
10348;BME280;5220;43.192;23.284;2023-05-21T12:47:10;96723.47;;;24.53;89.39
10348;BME280;5220;43.192;23.284;2023-05-21T12:49:39;96709.56;;;24.45;85.58
10348;BME280;5220;43.192;23.284;2023-05-21T12:52:09;96711.59;;;24.23;88.44
10348;BME280;5220;43.192;23.284;2023-05-21T12:54:37;96716.91;;;24.23;91.84
10348;BME280;5220;43.192;23.284;2023-05-21T12:57:13;96716.88;;;24.03;88.16
10348;BME280;5220;43.192;23.284;2023-05-21T12:59:47;96726.03;;;23.88;88.57
10348;BME280;5220;43.192;23.284;2023-05-21T13:02:23;96717.44;;;23.92;91.00
10348;BME280;5220;43.192;23.284;2023-05-21T13:04:54;96715.19;;;23.89;94.84